createdAt,value
2018-09-04T00:01:09.295Z,33.17
2018-09-04T00:06:06.675Z,32.33
2018-09-04T00:11:03.505Z,34.83
2018-09-04T00:16:05.365Z,35.00
2018-09-04T00:21:02.283Z,34.27
2018-09-04T00:25:59.255Z,35.80
2018-09-04T00:30:56.037Z,34.63
2018-09-04T00:35:53.715Z,34.53
2018-09-04T00:40:50.680Z,34.47
2018-09-04T00:45:47.656Z,34.03
2018-09-04T00:50:44.588Z,35.33
2018-09-04T00:55:41.399Z,37.23
2018-09-04T01:00:39.016Z,37.70
2018-09-04T01:05:36.014Z,36.37
2018-09-04T01:10:33.286Z,36.90
2018-09-04T01:15:30.064Z,38.30
2018-09-04T01:20:27.320Z,36.93
2018-09-04T01:25:24.175Z,37.93
2018-09-04T01:30:21.408Z,38.67
2018-09-04T01:35:17.685Z,37.17
2018-09-04T01:40:15.165Z,39.03
2018-09-04T01:45:11.975Z,37.87
2018-09-04T01:50:08.965Z,39.73
2018-09-04T01:55:06.150Z,39.90
2018-09-04T02:00:03.258Z,39.27
2018-09-04T02:05:00.128Z,40.13
2018-09-04T02:09:57.140Z,39.17
2018-09-04T02:14:54.682Z,38.90
2018-09-04T02:19:51.404Z,41.43
2018-09-04T02:24:48.433Z,40.67
2018-09-04T02:29:45.268Z,40.77
2018-09-04T02:34:43.475Z,38.77
2018-09-04T02:39:40.305Z,41.43
2018-09-04T02:44:37.416Z,40.30
2018-09-04T02:49:34.205Z,41.50
2018-09-04T02:54:31.300Z,36.93
2018-09-04T02:59:28.322Z,38.90
2018-09-04T03:04:25.098Z,36.83
2018-09-04T03:09:21.979Z,33.97
2018-09-04T03:14:18.873Z,32.90
2018-09-04T03:19:15.637Z,26.80
2018-09-04T03:24:12.674Z,23.17
2018-09-04T03:29:09.670Z,21.00
2018-09-04T03:34:06.433Z,16.07
2018-09-04T03:39:04.287Z,12.97
2018-09-04T03:44:01.052Z,12.30
2018-09-04T03:48:57.961Z,12.63
2018-09-04T03:53:54.993Z,15.17
2018-09-04T03:58:52.593Z,16.13
2018-09-04T04:03:49.302Z,18.73
2018-09-04T04:08:46.459Z,21.30
2018-09-04T04:13:49.793Z,25.23
2018-09-04T04:18:46.584Z,28.17
2018-09-04T04:23:43.647Z,31.13
2018-09-04T04:28:40.723Z,32.40
2018-09-04T04:33:37.598Z,34.13
2018-09-04T04:38:34.464Z,36.37
2018-09-04T04:43:31.232Z,37.03
2018-09-04T04:48:28.199Z,41.43
2018-09-04T04:53:25.249Z,41.60
2018-09-04T04:58:22.311Z,44.60
2018-09-04T05:03:19.127Z,42.73
2018-09-04T05:08:16.394Z,42.80
2018-09-04T05:13:13.247Z,42.13
2018-09-04T05:18:10.417Z,41.23
2018-09-04T05:23:07.114Z,42.47
2018-09-04T05:28:04.361Z,41.97
2018-09-04T05:33:06.853Z,40.83
2018-09-04T05:38:03.976Z,40.87
2018-09-04T05:43:03.669Z,41.67
2018-09-04T05:48:03.773Z,40.93
2018-09-04T05:53:01.320Z,42.43
2018-09-04T05:57:58.456Z,39.97
2018-09-04T06:02:55.260Z,41.00
2018-09-04T06:07:52.134Z,42.17
2018-09-04T06:12:49.147Z,43.47
2018-09-04T06:17:46.424Z,45.07
2018-09-04T06:22:43.208Z,42.03
2018-09-04T06:27:40.167Z,42.57
2018-09-04T06:32:37.308Z,42.43
2018-09-04T06:37:34.183Z,43.90
2018-09-04T06:42:31.294Z,44.63
2018-09-04T06:47:28.506Z,44.67
2018-09-04T06:52:25.252Z,46.73
2018-09-04T06:57:22.454Z,47.10
2018-09-04T07:02:19.144Z,45.33
2018-09-04T07:07:16.113Z,48.47
2018-09-04T07:12:12.895Z,46.10
2018-09-04T07:17:09.914Z,46.50
2018-09-04T07:22:06.645Z,44.63
2018-09-04T07:27:03.697Z,46.03
2018-09-04T07:32:00.687Z,45.10
2018-09-04T07:36:57.834Z,46.70
2018-09-04T07:41:54.799Z,49.47
2018-09-04T07:46:52.153Z,49.57
2018-09-04T07:51:48.949Z,48.57
2018-09-04T07:56:47.241Z,48.37
2018-09-04T08:01:44.232Z,47.53
2018-09-04T08:06:41.510Z,47.77
2018-09-04T08:11:38.348Z,47.07
2018-09-04T08:16:35.975Z,46.80
2018-09-04T08:21:36.438Z,47.53
2018-09-04T08:26:33.397Z,47.27
2018-09-04T08:31:30.314Z,48.27
2018-09-04T08:36:27.376Z,47.40
2018-09-04T08:41:24.302Z,46.80
2018-09-04T08:46:21.874Z,44.67
2018-09-04T08:51:18.817Z,43.40
2018-09-04T08:56:15.933Z,45.10
2018-09-04T09:01:12.850Z,46.33
2018-09-04T09:06:10.144Z,45.10
2018-09-04T09:11:07.153Z,44.50
2018-09-04T09:16:04.149Z,44.83
2018-09-04T09:21:00.980Z,43.70
2018-09-04T09:25:59.510Z,40.55
2018-09-04T09:30:56.241Z,41.15
2018-09-04T09:35:53.227Z,43.10
2018-09-04T09:40:50.038Z,42.93
2018-09-04T09:45:46.943Z,42.73
2018-09-04T09:50:43.721Z,41.58
2018-09-04T09:55:41.538Z,41.33
2018-09-04T10:00:58.238Z,39.63
2018-09-04T10:05:55.031Z,40.43
2018-09-04T10:10:52.349Z,40.73
2018-09-04T10:15:49.168Z,38.05
2018-09-04T10:20:46.270Z,35.98
2018-09-04T10:25:43.023Z,36.58
2018-09-04T10:30:40.384Z,35.63
2018-09-04T10:35:37.105Z,32.90
2018-09-04T10:40:39.754Z,32.10
2018-09-04T10:45:42.352Z,33.50
2018-09-04T10:50:39.169Z,35.48
2018-09-04T10:55:36.418Z,36.68
2018-09-04T11:00:33.759Z,34.23
2018-09-04T11:05:30.780Z,35.10
2018-09-04T11:10:27.621Z,32.10
2018-09-04T11:15:24.649Z,31.17
2018-09-04T11:20:21.447Z,30.17
2018-09-04T11:25:18.661Z,32.73
2018-09-04T11:30:15.417Z,31.48
2018-09-04T11:35:12.596Z,29.55
2018-09-04T11:40:09.664Z,27.50
2018-09-04T11:45:07.053Z,28.42
2018-09-04T11:50:04.169Z,29.98
2018-09-04T11:55:01.254Z,29.07
2018-09-04T11:59:58.180Z,28.50
2018-09-04T12:04:55.273Z,28.32
2018-09-04T12:09:53.277Z,31.42
2018-09-04T12:14:52.043Z,27.15
2018-09-04T12:20:58.870Z,29.45
2018-09-04T12:25:56.848Z,28.12
2018-09-04T12:30:54.642Z,28.17
2018-09-04T12:35:51.505Z,30.17
2018-09-04T12:40:49.288Z,29.32
2018-09-04T12:45:50.463Z,31.73
2018-09-04T12:50:47.242Z,30.97
2018-09-04T12:55:44.261Z,31.70
2018-09-04T13:00:45.157Z,31.62
2018-09-04T13:05:41.927Z,28.60
2018-09-04T13:10:39.686Z,30.60
2018-09-04T13:15:37.052Z,29.20
2018-09-04T13:20:34.282Z,29.55
2018-09-04T13:25:31.012Z,30.00
2018-09-04T13:30:28.337Z,30.23
2018-09-04T13:35:25.128Z,28.85
2018-09-04T13:40:22.680Z,30.82
2018-09-04T13:45:19.607Z,28.05
2018-09-04T13:50:16.577Z,30.25
2018-09-04T13:55:13.374Z,29.05
2018-09-04T14:00:11.908Z,27.30
2018-09-04T14:05:08.722Z,27.45
2018-09-04T14:10:06.124Z,26.82
2018-09-04T14:15:03.833Z,26.87
2018-09-04T14:20:00.782Z,26.73
2018-09-04T14:24:57.619Z,29.35
2018-09-04T14:30:15.402Z,27.87
2018-09-04T14:34:51.266Z,28.38
2018-09-04T14:39:55.589Z,28.23
2018-09-04T14:44:45.068Z,24.98
2018-09-04T14:49:42.324Z,25.62
2018-09-04T14:54:39.119Z,26.73
2018-09-04T14:59:36.077Z,27.10
2018-09-04T15:04:32.775Z,25.68
2018-09-04T15:09:29.757Z,26.05
2018-09-04T15:14:26.467Z,25.50
2018-09-04T15:19:24.108Z,26.57
2018-09-04T15:24:20.839Z,23.62
2018-09-04T15:29:18.967Z,23.70
2018-09-04T15:34:17.041Z,25.40
2018-09-04T15:39:14.013Z,27.07
2018-09-04T15:44:10.794Z,25.05
2018-09-04T15:49:13.322Z,25.15
2018-09-04T15:54:10.129Z,26.77
2018-09-04T15:59:07.753Z,27.30
2018-09-04T16:04:04.635Z,25.85
2018-09-04T16:09:02.736Z,24.70
2018-09-04T16:13:59.467Z,25.12
2018-09-04T16:18:56.469Z,26.60
2018-09-04T16:23:53.229Z,25.80
2018-09-04T16:28:51.354Z,27.02
2018-09-04T16:33:48.123Z,27.07
2018-09-04T16:38:45.094Z,29.77
2018-09-04T16:43:41.848Z,27.87
2018-09-04T16:48:38.818Z,27.45
2018-09-04T16:53:35.577Z,30.43
2018-09-04T16:58:32.923Z,29.67
2018-09-04T17:03:30.094Z,27.77
2018-09-04T17:08:27.093Z,29.25
2018-09-04T17:13:23.856Z,28.20
2018-09-04T17:18:21.098Z,27.77
2018-09-04T17:23:17.853Z,27.25
2018-09-04T17:28:14.795Z,29.05
2018-09-04T17:33:12.627Z,28.38
2018-09-04T17:38:09.714Z,28.87
2018-09-04T17:43:06.500Z,29.15
2018-09-04T17:48:02.887Z,28.80
2018-09-04T17:52:59.604Z,28.25
2018-09-04T17:57:57.100Z,27.85
2018-09-04T18:02:53.866Z,28.62
2018-09-04T18:07:50.920Z,28.00
2018-09-04T18:12:47.715Z,31.57
2018-09-04T18:17:44.745Z,30.07
2018-09-04T18:22:41.776Z,28.53
2018-09-04T18:27:38.676Z,30.17
2018-09-04T18:32:35.415Z,29.57
2018-09-04T18:37:32.363Z,30.53
2018-09-04T18:42:29.121Z,30.90
2018-09-04T18:47:26.741Z,31.47
2018-09-04T18:52:24.342Z,32.07
2018-09-04T18:57:21.205Z,32.47
2018-09-04T19:02:17.973Z,32.80
2018-09-04T19:07:15.185Z,32.63
2018-09-04T19:12:11.960Z,35.10
2018-09-04T19:17:09.083Z,33.87
2018-09-04T19:22:05.891Z,33.23
2018-09-04T19:27:02.736Z,33.73
2018-09-04T19:31:59.534Z,35.83
2018-09-04T19:36:56.844Z,36.57
2018-09-04T19:41:53.594Z,35.93
2018-09-04T19:46:50.724Z,36.47
2018-09-04T19:51:47.658Z,38.70
2018-09-04T19:56:45.837Z,37.53
2018-09-04T20:01:42.661Z,38.97
2018-09-04T20:06:40.152Z,39.40
2018-09-04T20:11:36.972Z,39.03
2018-09-04T20:16:34.040Z,39.13
2018-09-04T20:21:30.810Z,41.13
2018-09-04T20:26:27.834Z,39.07
2018-09-04T20:31:24.597Z,39.20
2018-09-04T20:36:21.503Z,39.20
2018-09-04T20:41:18.507Z,40.10
2018-09-04T20:46:15.832Z,40.80
2018-09-04T20:51:12.690Z,41.00
2018-09-04T20:56:10.014Z,40.77
2018-09-04T21:01:13.690Z,39.83
2018-09-04T21:06:16.325Z,40.80
2018-09-04T21:11:13.092Z,41.73
2018-09-04T21:16:10.233Z,40.77
2018-09-04T21:21:07.136Z,40.30
2018-09-04T21:26:04.157Z,39.60
2018-09-04T21:31:01.015Z,38.57
2018-09-04T21:35:58.390Z,39.67
2018-09-04T21:40:55.173Z,39.47
2018-09-04T21:45:52.107Z,40.80
2018-09-04T21:50:48.899Z,42.77
2018-09-04T21:55:45.882Z,42.23
2018-09-04T22:00:42.729Z,41.63
2018-09-04T22:05:41.004Z,42.97
2018-09-04T22:10:37.922Z,42.90
2018-09-04T22:15:35.455Z,40.53
2018-09-04T22:20:32.159Z,41.30
2018-09-04T22:25:29.843Z,40.23
2018-09-04T22:30:26.775Z,41.43
2018-09-04T22:35:23.696Z,42.80
2018-09-04T22:40:20.417Z,42.53
2018-09-04T22:45:17.874Z,44.30
2018-09-04T22:50:20.586Z,42.03
2018-09-04T22:55:17.639Z,41.87
2018-09-04T23:00:16.536Z,41.70
2018-09-04T23:05:13.592Z,41.83
2018-09-04T23:10:10.718Z,40.83
2018-09-04T23:15:07.574Z,41.40
2018-09-04T23:20:04.939Z,41.47
2018-09-04T23:25:01.770Z,41.63
2018-09-04T23:29:58.741Z,41.13
2018-09-04T23:34:55.594Z,41.93
2018-09-04T23:39:52.528Z,42.83
2018-09-04T23:44:49.377Z,40.40
2018-09-04T23:49:46.291Z,39.93
2018-09-04T23:54:43.881Z,41.10
2018-09-04T23:59:40.753Z,40.47
